WetterOnline ( https://www.wetteronline.de )

Wetter aktuell Plön

Aktuelles Wetter: Dörnick (28m)

6-stündlich | Neueste Meldungen
Ortszeit Temperatur Wetter
Mi, 01.02. 7:00 4.1° C bedeckt
Mi, 01.02. 1:00 4.4° C leichter Regen
Di, 31.01. 19:00 5.9° C leicht bewölkt
Di, 31.01. 13:00 5.9° C Sprühregen
Di, 31.01. 7:00 3.5° C Sprühregen
Di, 31.01. 1:00 3.0° C wolkenlos
Mo, 30.01. 19:00 5.0° C leicht bewölkt
Mo, 30.01. 13:00 4.5° C leichter Regen
Ortszeit Temperatur Wetter
Mi, 01.02. 7:30 4.0° C bewölkt
Mi, 01.02. 7:20 4.0° C bewölkt
Mi, 01.02. 7:10 4.2° C bedeckt
Mi, 01.02. 7:00 4.1° C bedeckt
Mi, 01.02. 6:50 4.1° C bedeckt
Mi, 01.02. 6:40 4.1° C bedeckt
Mi, 01.02. 6:30 3.9° C bewölkt
Mi, 01.02. 6:00 4.1° C Regen
Mi, 01.02. 5:30 4.8° C leichter Regen
Mi, 01.02. 5:00 5.6° C bedeckt
Mi, 01.02. 4:30 5.5° C bewölkt
Ortszeit Relative Feuchte Sichtweite
Mi, 01.02. 7:00 87% 35 km
Mi, 01.02. 1:00 80% 9 km
Di, 31.01. 19:00 71% 25 km
Di, 31.01. 13:00 93% 3.4 km
Di, 31.01. 7:00 87% 20 km
Di, 31.01. 1:00 78% 30 km
Mo, 30.01. 19:00 71% 30 km
Mo, 30.01. 13:00 86% 6 km
Ortszeit Relative Feuchte Sichtweite
Mi, 01.02. 7:30 87% 30 km
Mi, 01.02. 7:20 87% -
Mi, 01.02. 7:10 86% -
Mi, 01.02. 7:00 87% 35 km
Mi, 01.02. 6:50 87% -
Mi, 01.02. 6:40 86% -
Mi, 01.02. 6:30 87% 40 km
Mi, 01.02. 6:00 84% 40 km
Mi, 01.02. 5:30 82% 15 km
Mi, 01.02. 5:00 79% 17 km
Mi, 01.02. 4:30 79% 17 km
Ortszeit Niederschlagsmenge Niederschlagsart
Mi, 01.02. 7:00 5 l/m2 in 12 Std. Regen
Mi, 01.02. 1:00 3 l/m2 in 6 Std. Regen
Di, 31.01. 19:00 3 l/m2 in 12 Std. Regen
Di, 31.01. 13:00 2 l/m2 in 6 Std. Regen
Di, 31.01. 7:00 0.1 l/m2 in 12 Std. Regen
Di, 31.01. 1:00 0.0 l/m2 in 6 Std. -
Mo, 30.01. 19:00 0.0 l/m2 in 3 Std. -
Mo, 30.01. 13:00 2 l/m2 in 6 Std. Regen
Ortszeit Niederschlagsmenge Niederschlagsart
Mi, 01.02. 7:30 0.0 l/m2 in 30 Min -
Mi, 01.02. 7:20 keine Meldung -
Mi, 01.02. 7:10 keine Meldung -
Mi, 01.02. 7:00 <0.05 l/m2 in 1 Std. Regen
Mi, 01.02. 6:50 keine Meldung -
Mi, 01.02. 6:40 keine Meldung -
Mi, 01.02. 6:30 <0.05 l/m2 in 30 Min Schneeregen
Mi, 01.02. 6:00 0.7 l/m2 in 1 Std. Regen
Mi, 01.02. 5:30 0.3 l/m2 in 30 Min -
Mi, 01.02. 5:00 0.0 l/m2 in 1 Std. -
Mi, 01.02. 4:30 0.0 l/m2 in 30 Min -
Ortszeit Stärke Spitze Richtung
km/h Bft. km/h Grad Sektor
Mi, 01.02. 7:00 18 3 58 260° W
Mi, 01.02. 1:00 29 5 58 290° W
Di, 31.01. 19:00 35 5 70 270° W
Di, 31.01. 13:00 31 5 46 250° W
Di, 31.01. 7:00 14 3 36 250° W
Di, 31.01. 1:00 24 4 56 280° W
Mo, 30.01. 19:00 33 5 56 300° NW
Mo, 30.01. 13:00 31 5 65 280° W
Ortszeit Stärke Spitze Richtung
km/h Bft. km/h Grad Sektor
Mi, 01.02. 7:30 20 4 35 250° W
Mi, 01.02. 7:20 20 4 - 250° W
Mi, 01.02. 7:10 22 4 - 260° W
Mi, 01.02. 7:00 18 3 40 260° W
Mi, 01.02. 6:50 18 3 - 260° W
Mi, 01.02. 6:40 22 4 - 250° W
Mi, 01.02. 6:30 22 4 41 250° W
Mi, 01.02. 6:00 25 4 54 260° W
Mi, 01.02. 5:30 31 5 48 270° W
Mi, 01.02. 5:00 22 4 44 260° W
Mi, 01.02. 4:30 22 4 41 260° W
Ortszeit Untergrenze Bedeckung Gattung
total tief tief mittel hoch
Mi, 01.02. 7:00 540 m 8/8 8/8 - - -
Mi, 01.02. 1:00 540 m 7/8 6/8 - - -
Di, 31.01. 19:00 870 m 4/8 4/8 - - -
Di, 31.01. 13:00 210 m 7/8 7/8 - - -
Di, 31.01. 7:00 630 m 8/8 8/8 - - -
Di, 31.01. 1:00 - 0/8 0/8 - - -
Mo, 30.01. 19:00 840 m 3/8 3/8 - - -
Mo, 30.01. 13:00 570 m 7/8 7/8 - - -
Ortszeit Bedeckungsgrad in Achtel und Wolkenuntergrenze
Mi, 01.02. 7:30 5(480m) 7(630m) 7(6000m)
Mi, 01.02. 7:20 5(480m) 7(630m) 7(6000m)
Mi, 01.02. 7:10 8
Mi, 01.02. 7:00 8(540m) 8(3900m)
Mi, 01.02. 6:50 8(540m) 8(3900m)
Mi, 01.02. 6:40 8
Mi, 01.02. 6:30 5(600m) 7(1200m) 8(6300m)
Mi, 01.02. 6:00 3(600m) 8(2100m) 8(2700m)
Mi, 01.02. 5:30 5(540m) 7(720m) 8(1140m)
Mi, 01.02. 5:00 7(570m) 8(840m)
Mi, 01.02. 4:30 7(600m) 7(720m) 8(4800m)
Ortszeit Luftdruck NN (hPa) Tendenz (hPa in 3 Std.)
Mi, 01.02. 7:00 1006 - 1,2
Mi, 01.02. 1:00 1009 - 0,1
Di, 31.01. 19:00 1008 + 1,0
Di, 31.01. 13:00 1009 - 3,4
Di, 31.01. 7:00 1015 - 0,9
Di, 31.01. 1:00 1014 + 1,6
Mo, 30.01. 19:00 1009 + 4,5
Mo, 30.01. 13:00 1003 0,0
Ortszeit Luftdruck NN (hPa) Tendenz (hPa in 3 Std.)
Mi, 01.02. 7:30 1006 - 1,0
Mi, 01.02. 7:20 1006 keine Meldung
Mi, 01.02. 7:10 1006 keine Meldung
Mi, 01.02. 7:00 1006 - 1,2
Mi, 01.02. 6:50 1006 keine Meldung
Mi, 01.02. 6:40 1006 keine Meldung
Mi, 01.02. 6:30 1006 - 1,4
Mi, 01.02. 6:00 1006 - 1,6
Mi, 01.02. 5:30 1006 - 1,4
Mi, 01.02. 5:00 1007 - 1,4
Mi, 01.02. 4:30 1007 - 1,2
Ortszeit Schneehöhe (cm)
Mi, 01.02. 7:00 0
Mi, 01.02. 1:00 0
Di, 31.01. 19:00 0
Di, 31.01. 13:00 0
Di, 31.01. 7:00 0
Di, 31.01. 1:00 0
Mo, 30.01. 19:00 0
Mo, 30.01. 13:00 0
Ortszeit Schneehöhe (cm)
Mi, 01.02. 7:30 0
Mi, 01.02. 7:20 0
Mi, 01.02. 7:10 0
Mi, 01.02. 7:00 0
Mi, 01.02. 6:50 0
Mi, 01.02. 6:40 0
Mi, 01.02. 6:30 0
Mi, 01.02. 6:00 0
Mi, 01.02. 5:30 0
Mi, 01.02. 5:00 0
Mi, 01.02. 4:30 0
Link zu dieser Seite / Seite empfehlen

Das Wetter in ...